Terminal Aerodrome Forecast
Issued by NWS Grand Forks, ND

Home | Current Version | Previous Version | Text Only | Print | Product List | Glossary On
Versions: 1 2 3 4 5 6 7 8 9 10 11 12 13 14
000
FTUS43 KFGF 160800 AAA
TAFFAR
TAF AMD
KFAR 160832Z 1609/1706 08015KT 1SM -SN OVC025
      TEMPO 1609/1611 2SM -SN
     FM161100 05015G23KT 4SM -SN OVC025
     FM161700 04022G30KT P6SM BKN035=

USA.gov is the U.S. government's official web portal to all federal, state and local government web resources and services.